Time;durP1;ratioP1;P1;durP2;ratioP2;P2;SDS_P1;SDS_P2;PMS_P1;PMS_P2;Temp;Humidity;BMP_temperature;BMP_pressure;BME280_temperature;BME280_humidity;BME280_pressure;Samples;Min_cycle;Max_cycle;Signal;HPM_P1;HPM_P2
2023/08/24 00:00:03;;;;;;;;;;;;;;;;;;5034785;28;20411;-67
2023/08/24 00:02:29;;;;;;;;;;;;;;;;;;5034648;28;19948;-67
2023/08/24 00:04:56;;;;;;;;;;;;;;;;;;5034766;28;19905;-67
2023/08/24 00:07:22;;;;;;;;;;;;;;;;;;5033962;28;19915;-67
2023/08/24 00:09:48;;;;;;;;;;;;;;;;;;5034849;28;19984;-67
2023/08/24 00:12:14;;;;;;;;;;;;;;;;;;5034715;28;19909;-67
2023/08/24 00:14:40;;;;;;;;;;;;;;;;;;5034772;28;19994;-67
2023/08/24 00:17:06;;;;;;;;;;;;;;;;;;5034364;28;19974;-68
2023/08/24 00:19:31;;;;;;;;;;;;;;;;;;5034042;28;19955;-68
2023/08/24 00:21:57;;;;;;;;;;;;;;;;;;5034465;28;20024;-68
2023/08/24 00:24:24;;;;;;;;;;;;;;;;;;5034301;28;20380;-67
2023/08/24 00:26:50;;;;;;;;;;;;;;;;;;5034520;28;19959;-68
2023/08/24 00:29:15;;;;;;;;;;;;;;;;;;5033855;28;19904;-68
2023/08/24 00:31:42;;;;;;;;;;;;;;;;;;5034172;28;19959;-67
2023/08/24 00:34:08;;;;;;;;;;;;;;;;;;5034425;28;19905;-67
2023/08/24 00:36:33;;;;;;;;;;;;;;;;;;5034094;28;19955;-68
2023/08/24 00:38:59;;;;;;;;;;;;;;;;;;5033698;28;19909;-68
2023/08/24 00:41:25;;;;;;;;;;;;;;;;;;5034513;28;19928;-68
2023/08/24 00:43:51;;;;;;;;;;;;;;;;;;5033903;28;20554;-68
2023/08/24 00:46:17;;;;;;;;;;;;;;;;;;5033813;28;19905;-68
2023/08/24 00:48:43;;;;;;;;;;;;;;;;;;5033008;28;19905;-67
2023/08/24 00:51:09;;;;;;;;;;;;;;;;;;5033895;28;19912;-67
2023/08/24 00:53:35;;;;;;;;;;;;;;;;;;5032624;28;20368;-68
2023/08/24 00:56:01;;;;;;;;;;;;;;;;;;5033846;28;19909;-67
2023/08/24 00:58:27;;;;;;;;;;;;;;;;;;5032918;28;19959;-68
2023/08/24 01:00:53;;;;;;;;;;;;;;;;;;5033787;28;19951;-67
2023/08/24 01:03:19;;;;;;;;;;;;;;;;;;5033930;28;20324;-67
2023/08/24 01:05:45;;;;;;;;;;;;;;;;;;5033540;28;19963;-67
2023/08/24 01:08:11;;;;;;;;;;;;;;;;;;5033240;28;19912;-67
2023/08/24 01:10:37;;;;;;;;;;;;;;;;;;5033978;28;20276;-66
2023/08/24 01:13:04;;;;;;;;;;;;;;;;;;5034081;28;19909;-68
2023/08/24 01:15:29;;;;;;;;;;;;;;;;;;5033983;28;19912;-68
2023/08/24 01:17:55;;;;;;;;;;;;;;;;;;5032999;28;20292;-67
2023/08/24 01:20:21;;;;;;;;;;;;;;;;;;5033695;28;19991;-67
2023/08/24 01:22:47;;;;;;;;;;;;;;;;;;5033501;28;19912;-67
2023/08/24 01:25:13;;;;;;;;;;;;;;;;;;5033495;28;20335;-67
2023/08/24 01:27:39;;;;;;;;;;;;;;;;;;5032547;28;19955;-67
2023/08/24 01:30:05;;;;;;;;;;;;;;;;;;5033343;28;19904;-67
2023/08/24 01:32:31;;;;;;;;;;;;;;;;;;5032888;28;19947;-66
2023/08/24 01:34:57;;;;;;;;;;;;;;;;;;5032984;28;20091;-66
2023/08/24 01:37:23;;;;;;;;;;;;;;;;;;5032316;28;20388;-66
2023/08/24 01:39:49;;;;;;;;;;;;;;;;;;5032903;28;19905;-66
2023/08/24 01:42:15;;;;;;;;;;;;;;;;;;5032947;28;19905;-66
2023/08/24 01:44:41;;;;;;;;;;;;;;;;;;5032863;28;20288;-66
2023/08/24 01:47:07;;;;;;;;;;;;;;;;;;5032833;28;19912;-67
2023/08/24 01:49:33;;;;;;;;;;;;;;;;;;5033429;28;19909;-69
2023/08/24 01:51:59;;;;;;;;;;;;;;;;;;5033459;28;19908;-68
2023/08/24 01:54:25;;;;;;;;;;;;;;;;;;5033099;28;19905;-68
2023/08/24 01:56:50;;;;;;;;;;;;;;;;;;5032454;28;19916;-68
2023/08/24 01:59:16;;;;;;;;;;;;;;;;;;5032261;28;20372;-68
2023/08/24 02:01:42;;;;;;;;;;;;;;;;;;5032499;28;19953;-68
2023/08/24 02:04:08;;;;;;;;;;;;;;;;;;5014462;28;19912;-68
2023/08/24 02:06:34;;;;;;;;;;;;;;;;;;5032226;28;19952;-68
2023/08/24 02:09:00;;;;;;;;;;;;;;;;;;5031674;28;19909;-68
2023/08/24 02:11:26;;;;;;;;;;;;;;;;;;5032288;28;20342;-69
2023/08/24 02:13:52;;;;;;;;;;;;;;;;;;5032604;28;19909;-68
2023/08/24 02:16:17;;;;;;;;;;;;;;;;;;5033093;28;19909;-69
2023/08/24 02:18:43;;;;;;;;;;;;;;;;;;5032596;28;20287;-69
2023/08/24 02:21:11;;;;;;;;;;;;;;;;;;5032741;28;19905;-69
2023/08/24 02:23:37;;;;;;;;;;;;;;;;;;5032558;28;19950;-69
2023/08/24 02:26:04;;;;;;;;;;;;;;;;;;5032064;28;20003;-69
2023/08/24 02:28:29;;;;;;;;;;;;;;;;;;5031332;28;19912;-68
2023/08/24 02:30:56;;;;;;;;;;;;;;;;;;5031827;28;20312;-68
2023/08/24 02:33:22;;;;;;;;;;;;;;;;;;5030850;28;19909;-69
2023/08/24 02:35:48;;;;;;;;;;;;;;;;;;5013287;28;20426;-69
2023/08/24 02:38:14;;;;;;;;;;;;;;;;;;5029602;28;19936;-68
2023/08/24 02:40:40;;;;;;;;;;;;;;;;;;5031650;28;20258;-68
2023/08/24 02:43:06;;;;;;;;;;;;;;;;;;5031977;28;19987;-68
2023/08/24 02:45:31;;;;;;;;;;;;;;;;;;5031524;28;20424;-68
2023/08/24 02:47:57;;;;;;;;;;;;;;;;;;5031027;28;19905;-67
2023/08/24 02:50:23;;;;;;;;;;;;;;;;;;5031641;28;20023;-67
2023/08/24 02:52:51;;;;;;;;;;;;;;;;;;5031564;28;19909;-67
2023/08/24 02:55:17;;;;;;;;;;;;;;;;;;5031722;28;19905;-68
2023/08/24 02:57:43;;;;;;;;;;;;;;;;;;5030589;28;19991;-67
2023/08/24 03:00:09;;;;;;;;;;;;;;;;;;5082422;22;20368;-72
2023/08/24 03:02:35;;;;;;;;;;;;;;;;;;5071249;28;20737;-71
2023/08/24 03:05:01;;;;;;;;;;;;;;;;;;5061669;28;19905;-70
2023/08/24 03:07:27;;;;;;;;;;;;;;;;;;5063094;28;19958;-73
2023/08/24 03:09:53;;;;;;;;;;;;;;;;;;5055889;28;19904;-70
2023/08/24 03:12:19;;;;;;;;;;;;;;;;;;5048736;28;19916;-70
2023/08/24 03:14:45;;;;;;;;;;;;;;;;;;5050811;28;19992;-72
2023/08/24 03:17:11;;;;;;;;;;;;;;;;;;5049323;28;19912;-73
2023/08/24 03:19:37;;;;;;;;;;;;;;;;;;5051479;28;19904;-72
2023/08/24 03:22:03;;;;;;;;;;;;;;;;;;5044753;28;20291;-72
2023/08/24 03:24:29;;;;;;;;;;;;;;;;;;5049566;28;19904;-71
2023/08/24 03:26:55;;;;;;;;;;;;;;;;;;5048700;28;19915;-72
2023/08/24 03:29:21;;;;;;;;;;;;;;;;;;5049201;28;19988;-72
2023/08/24 03:31:47;;;;;;;;;;;;;;;;;;5049357;28;19939;-72
2023/08/24 03:34:13;;;;;;;;;;;;;;;;;;5049559;28;19908;-73
2023/08/24 03:36:39;;;;;;;;;;;;;;;;;;5050257;28;19911;-72
2023/08/24 03:39:05;;;;;;;;;;;;;;;;;;5047407;28;19905;-73
2023/08/24 03:41:31;;;;;;;;;;;;;;;;;;5050892;28;19905;-71
2023/08/24 03:43:56;;;;;;;;;;;;;;;;;;5032731;28;20265;-73
2023/08/24 03:46:22;;;;;;;;;;;;;;;;;;5050701;28;19908;-72
2023/08/24 03:48:48;;;;;;;;;;;;;;;;;;5050301;28;19963;-72
2023/08/24 03:51:14;;;;;;;;;;;;;;;;;;5050976;28;20433;-71
2023/08/24 03:53:40;;;;;;;;;;;;;;;;;;5050731;28;19909;-72
2023/08/24 03:56:06;;;;;;;;;;;;;;;;;;5050927;28;19963;-72
2023/08/24 03:58:32;;;;;;;;;;;;;;;;;;5049387;28;20473;-72
2023/08/24 04:00:58;;;;;;;;;;;;;;;;;;5050405;28;19940;-72
2023/08/24 04:03:24;;;;;;;;;;;;;;;;;;5050794;28;19936;-71
2023/08/24 04:05:50;;;;;;;;;;;;;;;;;;5050323;28;20406;-71
2023/08/24 04:08:16;;;;;;;;;;;;;;;;;;5050171;28;19965;-71
2023/08/24 04:10:42;;;;;;;;;;;;;;;;;;5050346;28;19904;-71
2023/08/24 04:13:07;;;;;;;;;;;;;;;;;;5042910;28;20427;-73
2023/08/24 04:15:33;;;;;;;;;;;;;;;;;;5044451;28;19992;-73
2023/08/24 04:17:59;;;;;;;;;;;;;;;;;;5038467;28;20003;-71
2023/08/24 04:20:25;;;;;;;;;;;;;;;;;;5041850;28;19999;-72
2023/08/24 04:22:51;;;;;;;;;;;;;;;;;;5048244;28;19904;-72
2023/08/24 04:25:17;;;;;;;;;;;;;;;;;;5047211;28;19905;-72
2023/08/24 04:27:43;;;;;;;;;;;;;;;;;;5050347;28;20315;-72
2023/08/24 04:30:11;;;;;;;;;;;;;;;;;;5053753;28;19911;-71
2023/08/24 04:32:37;;;;;;;;;;;;;;;;;;5054221;28;19913;-72
2023/08/24 04:35:03;;;;;;;;;;;;;;;;;;5046896;28;20007;-71
2023/08/24 04:37:29;;;;;;;;;;;;;;;;;;5053130;28;19916;-72
2023/08/24 04:39:55;;;;;;;;;;;;;;;;;;5051225;28;19908;-70
2023/08/24 04:42:21;;;;;;;;;;;;;;;;;;5053479;28;19905;-71
2023/08/24 04:44:47;;;;;;;;;;;;;;;;;;5052965;28;19909;-72
2023/08/24 04:47:13;;;;;;;;;;;;;;;;;;5052304;28;19905;-71
2023/08/24 04:49:39;;;;;;;;;;;;;;;;;;5052979;28;20321;-72
2023/08/24 04:52:05;;;;;;;;;;;;;;;;;;5053530;28;19908;-71
2023/08/24 04:54:30;;;;;;;;;;;;;;;;;;5047482;28;19905;-73
2023/08/24 04:56:56;;;;;;;;;;;;;;;;;;5052993;28;19972;-74
2023/08/24 04:59:22;;;;;;;;;;;;;;;;;;5052554;28;20702;-73
2023/08/24 05:01:48;;;;;;;;;;;;;;;;;;5053299;28;19905;-74
2023/08/24 05:04:14;;;;;;;;;;;;;;;;;;5053325;28;20368;-72
2023/08/24 05:06:40;;;;;;;;;;;;;;;;;;5051255;28;19908;-71
2023/08/24 05:09:06;;;;;;;;;;;;;;;;;;5052834;28;19912;-73
2023/08/24 05:11:32;;;;;;;;;;;;;;;;;;5035260;28;20414;-71
2023/08/24 05:13:58;;;;;;;;;;;;;;;;;;5053042;28;19908;-73
2023/08/24 05:16:24;;;;;;;;;;;;;;;;;;5052874;28;19912;-74
2023/08/24 05:18:50;;;;;;;;;;;;;;;;;;5052275;28;19905;-72
2023/08/24 05:21:16;;;;;;;;;;;;;;;;;;5052833;28;19912;-74
2023/08/24 05:23:42;;;;;;;;;;;;;;;;;;5052469;28;19915;-71
2023/08/24 05:26:08;;;;;;;;;;;;;;;;;;5044423;28;19912;-74
2023/08/24 05:28:34;;;;;;;;;;;;;;;;;;5051977;28;19904;-73
2023/08/24 05:31:00;;;;;;;;;;;;;;;;;;5050499;28;19953;-73
2023/08/24 05:33:25;;;;;;;;;;;;;;;;;;5047244;28;19908;-73
2023/08/24 05:35:51;;;;;;;;;;;;;;;;;;5051891;28;19979;-74
2023/08/24 05:38:17;;;;;;;;;;;;;;;;;;5051808;28;20347;-73
2023/08/24 05:40:43;;;;;;;;;;;;;;;;;;5042661;28;19905;-73
2023/08/24 05:43:09;;;;;;;;;;;;;;;;;;5052350;28;20070;-74
2023/08/24 05:45:35;;;;;;;;;;;;;;;;;;5052185;28;20328;-75
2023/08/24 05:48:01;;;;;;;;;;;;;;;;;;5031515;28;20011;-73
2023/08/24 05:50:27;;;;;;;;;;;;;;;;;;5052289;28;19999;-73
2023/08/24 05:52:53;;;;;;;;;;;;;;;;;;5052396;28;20287;-73
2023/08/24 05:55:19;;;;;;;;;;;;;;;;;;5052370;28;19958;-74
2023/08/24 05:57:45;;;;;;;;;;;;;;;;;;5050060;28;19905;-74
2023/08/24 06:00:10;;;;;;;;;;;;;;;;;;5052082;28;19920;-75
2023/08/24 06:02:36;;;;;;;;;;;;;;;;;;5053132;28;19916;-73
2023/08/24 06:05:03;;;;;;;;;;;;;;;;;;5052309;28;19991;-73
2023/08/24 06:07:28;;;;;;;;;;;;;;;;;;5051683;28;20083;-73
2023/08/24 06:09:54;;;;;;;;;;;;;;;;;;5051896;28;19962;-74
2023/08/24 06:12:20;;;;;;;;;;;;;;;;;;5046079;28;20315;-73
2023/08/24 06:14:46;;;;;;;;;;;;;;;;;;5046806;28;19904;-73
2023/08/24 06:17:12;;;;;;;;;;;;;;;;;;5051651;28;19905;-69
2023/08/24 06:19:38;;;;;;;;;;;;;;;;;;5044892;28;19912;-73
2023/08/24 06:22:04;;;;;;;;;;;;;;;;;;5051203;28;19924;-72
2023/08/24 06:24:30;;;;;;;;;;;;;;;;;;5051479;28;19905;-71
2023/08/24 06:26:58;;;;;;;;;;;;;;;;;;5051394;28;19951;-72
2023/08/24 06:29:24;;;;;;;;;;;;;;;;;;5044376;28;19912;-70
2023/08/24 06:31:50;;;;;;;;;;;;;;;;;;5045032;28;19905;-72
2023/08/24 06:34:16;;;;;;;;;;;;;;;;;;5030793;28;20367;-72
2023/08/24 06:36:42;;;;;;;;;;;;;;;;;;5050765;28;19908;-71
2023/08/24 06:39:08;;;;;;;;;;;;;;;;;;5050895;28;19905;-72
2023/08/24 06:41:34;;;;;;;;;;;;;;;;;;5051071;28;20368;-73
2023/08/24 06:44:00;;;;;;;;;;;;;;;;;;5032150;28;19935;-72
2023/08/24 06:46:26;;;;;;;;;;;;;;;;;;5048698;28;19905;-72
2023/08/24 06:48:52;;;;;;;;;;;;;;;;;;5050696;28;19908;-72
2023/08/24 06:51:18;;;;;;;;;;;;;;;;;;5051100;28;20403;-72
2023/08/24 06:53:46;;;;;;;;;;;;;;;;;;5050913;28;19921;-72
2023/08/24 06:56:12;;;;;;;;;;;;;;;;;;5051515;28;19905;-72
2023/08/24 06:58:38;;;;;;;;;;;;;;;;;;5050105;28;19912;-73
2023/08/24 07:01:06;;;;;;;;;;;;;;;;;;5051077;28;19909;-72
2023/08/24 07:03:33;;;;;;;;;;;;;;;;;;5051075;28;19904;-71
2023/08/24 07:05:59;;;;;;;;;;;;;;;;;;5051116;28;19904;-73
2023/08/24 07:08:24;;;;;;;;;;;;;;;;;;5050047;28;19987;-71
2023/08/24 07:10:50;;;;;;;;;;;;;;;;;;5050605;28;20066;-72
2023/08/24 07:13:16;;;;;;;;;;;;;;;;;;5050788;28;19915;-72
2023/08/24 07:15:42;;;;;;;;;;;;;;;;;;5050654;28;19995;-72
2023/08/24 07:18:09;;;;;;;;;;;;;;;;;;5048783;28;19905;-72
2023/08/24 07:20:34;;;;;;;;;;;;;;;;;;5055159;28;19984;-73
2023/08/24 07:23:00;;;;;;;;;;;;;;;;;;5051374;28;19909;-72
2023/08/24 07:25:28;;;;;;;;;;;;;;;;;;5050383;28;19940;-73
2023/08/24 07:27:58;;;;;;;;;;;;;;;;;;5049779;28;19904;-73
2023/08/24 07:30:24;;;;;;;;;;;;;;;;;;5050041;28;20042;-73
2023/08/24 07:32:49;;;;;;;;;;;;;;;;;;5050380;28;20372;-70
2023/08/24 07:35:16;;;;;;;;;;;;;;;;;;5050617;28;19905;-73
2023/08/24 07:37:42;;;;;;;;;;;;;;;;;;5058625;28;19904;-72
2023/08/24 07:40:09;;;;;;;;;;;;;;;;;;5050617;28;19913;-72
2023/08/24 07:42:34;;;;;;;;;;;;;;;;;;5050677;28;19909;-72
2023/08/24 07:45:00;;;;;;;;;;;;;;;;;;5050811;28;19905;-72
2023/08/24 07:47:26;;;;;;;;;;;;;;;;;;5050093;28;19912;-72
2023/08/24 07:49:52;;;;;;;;;;;;;;;;;;5050438;28;20008;-72
2023/08/24 07:52:18;;;;;;;;;;;;;;;;;;5045718;28;19909;-73
2023/08/24 07:54:45;;;;;;;;;;;;;;;;;;5047428;28;19904;-72
2023/08/24 07:57:11;;;;;;;;;;;;;;;;;;5058220;28;19911;-72
2023/08/24 07:59:37;;;;;;;;;;;;;;;;;;5050343;28;19924;-73
2023/08/24 08:02:03;;;;;;;;;;;;;;;;;;5050240;28;19920;-73
2023/08/24 08:04:29;;;;;;;;;;;;;;;;;;5054173;28;19995;-72
2023/08/24 08:06:55;;;;;;;;;;;;;;;;;;5054221;28;20269;-72
2023/08/24 08:09:21;;;;;;;;;;;;;;;;;;5035897;28;19912;-73
2023/08/24 08:11:47;;;;;;;;;;;;;;;;;;5054402;28;20393;-72
2023/08/24 08:14:13;;;;;;;;;;;;;;;;;;5054460;28;19981;-73
2023/08/24 08:16:39;;;;;;;;;;;;;;;;;;5054027;28;20391;-70
2023/08/24 08:19:05;;;;;;;;;;;;;;;;;;5052066;28;19904;-72
2023/08/24 08:21:31;;;;;;;;;;;;;;;;;;5054414;28;19905;-72
2023/08/24 08:23:57;;;;;;;;;;;;;;;;;;5054100;28;20003;-72
2023/08/24 08:26:23;;;;;;;;;;;;;;;;;;5054072;28;19940;-72
2023/08/24 08:28:49;;;;;;;;;;;;;;;;;;5053460;28;19959;-72
2023/08/24 08:31:15;;;;;;;;;;;;;;;;;;5054082;28;19958;-72
2023/08/24 08:33:41;;;;;;;;;;;;;;;;;;5053871;28;20323;-71
2023/08/24 08:36:07;;;;;;;;;;;;;;;;;;5053798;28;20368;-72
2023/08/24 08:38:33;;;;;;;;;;;;;;;;;;5053102;28;19913;-72
2023/08/24 08:40:59;;;;;;;;;;;;;;;;;;5053597;28;19920;-71
2023/08/24 08:43:25;;;;;;;;;;;;;;;;;;5053600;28;19958;-72
2023/08/24 08:45:51;;;;;;;;;;;;;;;;;;5053459;28;20352;-71
2023/08/24 08:48:17;;;;;;;;;;;;;;;;;;5052983;28;20265;-72
2023/08/24 08:50:43;;;;;;;;;;;;;;;;;;5053283;28;20462;-72
2023/08/24 08:53:09;;;;;;;;;;;;;;;;;;5053782;28;19913;-73
2023/08/24 08:55:34;;;;;;;;;;;;;;;;;;5053423;28;19912;-73
2023/08/24 08:58:00;;;;;;;;;;;;;;;;;;5053024;28;19940;-73
2023/08/24 09:00:27;;;;;;;;;;;;;;;;;;5053737;28;19927;-70
2023/08/24 09:02:53;;;;;;;;;;;;;;;;;;5054172;28;19909;-70
2023/08/24 09:05:19;;;;;;;;;;;;;;;;;;5053028;28;20272;-72
2023/08/24 09:07:45;;;;;;;;;;;;;;;;;;5052840;28;19905;-70
2023/08/24 09:10:12;;;;;;;;;;;;;;;;;;5053215;28;20007;-71
2023/08/24 09:12:38;;;;;;;;;;;;;;;;;;5053143;28;20427;-71
2023/08/24 09:15:06;;;;;;;;;;;;;;;;;;5051986;28;20007;-71
2023/08/24 09:17:31;;;;;;;;;;;;;;;;;;5052797;28;20602;-71
2023/08/24 09:19:57;;;;;;;;;;;;;;;;;;5051518;28;19909;-71
2023/08/24 09:22:23;;;;;;;;;;;;;;;;;;5053115;28;19905;-72
2023/08/24 09:24:54;;;;;;;;;;;;;;;;;;5061748;28;20260;-70
2023/08/24 09:27:20;;;;;;;;;;;;;;;;;;5052295;28;19912;-71
2023/08/24 09:29:47;;;;;;;;;;;;;;;;;;5053399;28;19905;-71
2023/08/24 09:32:13;;;;;;;;;;;;;;;;;;5053416;28;19912;-70
2023/08/24 09:34:39;;;;;;;;;;;;;;;;;;5053222;28;19915;-71
2023/08/24 09:37:05;;;;;;;;;;;;;;;;;;5052980;28;19908;-72
2023/08/24 09:39:31;;;;;;;;;;;;;;;;;;5058917;28;20283;-71
2023/08/24 09:41:56;;;;;;;;;;;;;;;;;;5054457;28;19905;-71
2023/08/24 09:44:22;;;;;;;;;;;;;;;;;;5052316;28;20369;-71
2023/08/24 09:46:48;;;;;;;;;;;;;;;;;;5053006;28;20003;-71
2023/08/24 09:49:15;;;;;;;;;;;;;;;;;;5052332;28;19916;-71
2023/08/24 09:51:44;;;;;;;;;;;;;;;;;;5052712;28;20351;-71
2023/08/24 09:54:10;;;;;;;;;;;;;;;;;;5052655;28;20384;-71
2023/08/24 09:56:37;;;;;;;;;;;;;;;;;;5052595;28;19911;-70
2023/08/24 09:59:03;;;;;;;;;;;;;;;;;;5051851;28;19952;-72
2023/08/24 10:01:29;;;;;;;;;;;;;;;;;;5052167;28;19932;-71
2023/08/24 10:03:58;;;;;;;;;;;;;;;;;;5034300;28;19947;-71
2023/08/24 10:06:24;;;;;;;;;;;;;;;;;;5052087;28;20350;-71
2023/08/24 10:08:50;;;;;;;;;;;;;;;;;;5059790;28;20003;-72
2023/08/24 10:11:15;;;;;;;;;;;;;;;;;;5052313;28;19911;-71
2023/08/24 10:13:41;;;;;;;;;;;;;;;;;;5051793;28;19909;-71
2023/08/24 10:16:07;;;;;;;;;;;;;;;;;;5052381;28;19928;-72
2023/08/24 10:18:33;;;;;;;;;;;;;;;;;;5051248;28;20364;-71
2023/08/24 10:20:59;;;;;;;;;;;;;;;;;;5050796;28;19916;-72
2023/08/24 10:23:25;;;;;;;;;;;;;;;;;;5052020;28;19915;-71
2023/08/24 10:25:51;;;;;;;;;;;;;;;;;;5051867;28;19905;-71
2023/08/24 10:28:17;;;;;;;;;;;;;;;;;;5051318;28;19927;-71
2023/08/24 10:30:44;;;;;;;;;;;;;;;;;;5051770;28;20304;-71
2023/08/24 10:33:11;;;;;;;;;;;;;;;;;;5051923;28;19908;-72
2023/08/24 10:35:37;;;;;;;;;;;;;;;;;;5052125;28;19911;-72
2023/08/24 10:38:03;;;;;;;;;;;;;;;;;;5049524;28;19909;-71
2023/08/24 10:40:29;;;;;;;;;;;;;;;;;;5051543;28;19905;-72
2023/08/24 10:42:54;;;;;;;;;;;;;;;;;;5051795;28;19905;-72
2023/08/24 10:45:20;;;;;;;;;;;;;;;;;;5051525;28;19908;-72
2023/08/24 10:47:46;;;;;;;;;;;;;;;;;;5046111;28;19936;-71
2023/08/24 10:50:12;;;;;;;;;;;;;;;;;;5043657;28;19909;-71
2023/08/24 10:52:39;;;;;;;;;;;;;;;;;;5051559;28;19967;-71
2023/08/24 10:55:05;;;;;;;;;;;;;;;;;;5051531;28;19912;-71
2023/08/24 10:57:30;;;;;;;;;;;;;;;;;;5050880;28;20265;-71
2023/08/24 10:59:56;;;;;;;;;;;;;;;;;;5033156;28;19913;-71
2023/08/24 11:02:22;;;;;;;;;;;;;;;;;;5059979;28;19909;-71
2023/08/24 11:04:48;;;;;;;;;;;;;;;;;;5051351;28;19912;-71
2023/08/24 11:07:14;;;;;;;;;;;;;;;;;;5050804;28;19904;-71
2023/08/24 11:09:40;;;;;;;;;;;;;;;;;;5051023;28;19916;-71
2023/08/24 11:12:06;;;;;;;;;;;;;;;;;;5051083;28;20225;-71
2023/08/24 11:14:33;;;;;;;;;;;;;;;;;;5050707;28;19909;-71
2023/08/24 11:17:00;;;;;;;;;;;;;;;;;;5068618;28;20279;-71
2023/08/24 11:19:26;;;;;;;;;;;;;;;;;;5070885;28;20356;-72
2023/08/24 11:21:52;;;;;;;;;;;;;;;;;;5052245;28;19904;-71
2023/08/24 11:24:17;;;;;;;;;;;;;;;;;;5071524;28;19904;-71
2023/08/24 11:26:43;;;;;;;;;;;;;;;;;;5053145;28;19904;-72
2023/08/24 11:29:09;;;;;;;;;;;;;;;;;;5071048;28;20364;-72
2023/08/24 11:31:35;;;;;;;;;;;;;;;;;;5071263;28;19908;-71
2023/08/24 11:34:01;;;;;;;;;;;;;;;;;;5071815;28;20396;-71
2023/08/24 11:36:27;;;;;;;;;;;;;;;;;;5071388;28;19911;-71
2023/08/24 11:38:53;;;;;;;;;;;;;;;;;;5069836;28;20375;-71
2023/08/24 11:41:21;;;;;;;;;;;;;;;;;;5071167;28;19911;-71
2023/08/24 11:43:51;;;;;;;;;;;;;;;;;;5071047;28;19907;-71
2023/08/24 11:46:16;;;;;;;;;;;;;;;;;;5070720;28;20290;-70
2023/08/24 11:48:42;;;;;;;;;;;;;;;;;;5070169;28;19905;-69
2023/08/24 11:51:08;;;;;;;;;;;;;;;;;;5070514;28;20482;-71
2023/08/24 11:53:34;;;;;;;;;;;;;;;;;;5069786;28;19951;-71
2023/08/24 11:56:02;;;;;;;;;;;;;;;;;;5070613;28;19927;-72
2023/08/24 11:58:27;;;;;;;;;;;;;;;;;;5070027;28;19940;-72
2023/08/24 12:00:53;;;;;;;;;;;;;;;;;;5071379;28;19955;-72
2023/08/24 12:03:19;;;;;;;;;;;;;;;;;;5053269;28;19943;-72
2023/08/24 12:05:45;;;;;;;;;;;;;;;;;;5070975;28;20054;-72
2023/08/24 12:08:11;;;;;;;;;;;;;;;;;;5070181;28;19961;-71
2023/08/24 12:10:38;;;;;;;;;;;;;;;;;;5071012;28;19959;-71
2023/08/24 12:13:07;;;;;;;;;;;;;;;;;;5070996;28;19908;-72
2023/08/24 12:15:33;;;;;;;;;;;;;;;;;;5070812;28;19908;-71
2023/08/24 12:17:59;;;;;;;;;;;;;;;;;;5052418;28;20409;-69
2023/08/24 12:20:25;;;;;;;;;;;;;;;;;;5069914;28;19912;-72
2023/08/24 12:22:51;;;;;;;;;;;;;;;;;;5070842;28;19905;-71
2023/08/24 12:25:17;;;;;;;;;;;;;;;;;;5070969;28;19904;-71
2023/08/24 12:27:42;;;;;;;;;;;;;;;;;;5070131;28;20433;-72
2023/08/24 12:30:09;;;;;;;;;;;;;;;;;;5069883;28;19905;-72
2023/08/24 12:32:35;;;;;;;;;;;;;;;;;;5070632;28;19958;-71
2023/08/24 12:35:01;;;;;;;;;;;;;;;;;;5070749;28;19923;-71
2023/08/24 12:37:27;;;;;;;;;;;;;;;;;;5070034;28;19911;-71
2023/08/24 12:39:53;;;;;;;;;;;;;;;;;;5070727;28;19970;-71
2023/08/24 12:42:19;;;;;;;;;;;;;;;;;;5070737;28;19912;-71
2023/08/24 12:44:45;;;;;;;;;;;;;;;;;;5070613;28;19900;-71
2023/08/24 12:47:11;;;;;;;;;;;;;;;;;;5069965;28;19972;-71
2023/08/24 12:49:37;;;;;;;;;;;;;;;;;;5072331;28;19904;-71
2023/08/24 12:52:02;;;;;;;;;;;;;;;;;;5074181;28;19908;-72
2023/08/24 12:54:28;;;;;;;;;;;;;;;;;;5073915;28;20315;-71
2023/08/24 12:56:54;;;;;;;;;;;;;;;;;;5073173;28;20379;-72
2023/08/24 12:59:20;;;;;;;;;;;;;;;;;;5073508;28;19912;-72
2023/08/24 13:01:47;;;;;;;;;;;;;;;;;;5073861;28;19913;-71
2023/08/24 13:04:12;;;;;;;;;;;;;;;;;;5073320;28;19991;-71
2023/08/24 13:06:38;;;;;;;;;;;;;;;;;;5073836;28;19953;-71
2023/08/24 13:09:05;;;;;;;;;;;;;;;;;;5073339;28;20372;-71
2023/08/24 13:11:30;;;;;;;;;;;;;;;;;;5074069;28;19912;-72
2023/08/24 13:13:56;;;;;;;;;;;;;;;;;;5073558;28;19909;-71
2023/08/24 13:16:22;;;;;;;;;;;;;;;;;;5074050;28;19931;-72
2023/08/24 13:18:48;;;;;;;;;;;;;;;;;;5072901;28;20363;-71
2023/08/24 13:21:14;;;;;;;;;;;;;;;;;;5072844;28;19975;-72
2023/08/24 13:23:40;;;;;;;;;;;;;;;;;;5073849;28;19935;-71
2023/08/24 13:26:06;;;;;;;;;;;;;;;;;;5073276;28;20359;-71
2023/08/24 13:28:32;;;;;;;;;;;;;;;;;;5073330;28;19909;-71
2023/08/24 13:30:58;;;;;;;;;;;;;;;;;;5073651;28;19995;-71
2023/08/24 13:33:24;;;;;;;;;;;;;;;;;;5073062;28;20008;-71
2023/08/24 13:35:50;;;;;;;;;;;;;;;;;;5073205;28;20322;-70
2023/08/24 13:38:16;;;;;;;;;;;;;;;;;;5072060;28;20423;-70
2023/08/24 13:40:42;;;;;;;;;;;;;;;;;;5072517;28;20260;-71
2023/08/24 13:43:07;;;;;;;;;;;;;;;;;;5072791;28;19904;-71
2023/08/24 13:45:34;;;;;;;;;;;;;;;;;;5073038;28;19934;-72
2023/08/24 13:48:00;;;;;;;;;;;;;;;;;;5072680;28;19908;-71
2023/08/24 13:50:26;;;;;;;;;;;;;;;;;;5072970;28;19904;-71
2023/08/24 13:52:52;;;;;;;;;;;;;;;;;;5072632;28;19926;-71
2023/08/24 13:55:18;;;;;;;;;;;;;;;;;;5072937;28;19908;-72
2023/08/24 13:57:44;;;;;;;;;;;;;;;;;;5072344;28;19901;-70
2023/08/24 14:00:11;;;;;;;;;;;;;;;;;;5071821;28;20371;-70
2023/08/24 14:02:37;;;;;;;;;;;;;;;;;;5072472;28;19907;-71
2023/08/24 14:05:03;;;;;;;;;;;;;;;;;;5072731;28;19908;-72
2023/08/24 14:07:29;;;;;;;;;;;;;;;;;;5072037;28;19999;-72
2023/08/24 14:09:56;;;;;;;;;;;;;;;;;;5072594;28;19908;-72
2023/08/24 14:12:22;;;;;;;;;;;;;;;;;;5072488;28;19931;-71
2023/08/24 14:14:49;;;;;;;;;;;;;;;;;;5072441;28;19962;-71
2023/08/24 14:17:15;;;;;;;;;;;;;;;;;;5071648;28;20371;-70
2023/08/24 14:19:41;;;;;;;;;;;;;;;;;;5072258;28;19950;-71
2023/08/24 14:22:06;;;;;;;;;;;;;;;;;;5072226;28;19958;-71
2023/08/24 14:24:34;;;;;;;;;;;;;;;;;;5072094;28;19996;-71
2023/08/24 14:27:00;;;;;;;;;;;;;;;;;;5072210;28;19979;-71
2023/08/24 14:29:26;;;;;;;;;;;;;;;;;;5071728;28;20425;-71
2023/08/24 14:31:52;;;;;;;;;;;;;;;;;;5072268;28;19904;-72
2023/08/24 14:34:18;;;;;;;;;;;;;;;;;;5071848;28;20385;-71
2023/08/24 14:36:44;;;;;;;;;;;;;;;;;;5071804;28;19908;-70
2023/08/24 14:39:10;;;;;;;;;;;;;;;;;;5071332;28;19911;-71
2023/08/24 14:41:36;;;;;;;;;;;;;;;;;;5071916;28;19912;-71
2023/08/24 14:44:01;;;;;;;;;;;;;;;;;;5071999;28;19924;-72
2023/08/24 14:46:27;;;;;;;;;;;;;;;;;;5072076;28;19904;-71
2023/08/24 14:48:53;;;;;;;;;;;;;;;;;;5071278;28;19908;-70
2023/08/24 14:51:19;;;;;;;;;;;;;;;;;;5071586;28;19905;-71
2023/08/24 14:53:45;;;;;;;;;;;;;;;;;;5071572;28;19908;-71
2023/08/24 14:56:11;;;;;;;;;;;;;;;;;;5071754;28;19908;-71
2023/08/24 14:58:37;;;;;;;;;;;;;;;;;;5070860;28;19931;-71
2023/08/24 15:01:03;;;;;;;;;;;;;;;;;;5063084;22;20339;-67
2023/08/24 15:03:29;;;;;;;;;;;;;;;;;;5031745;28;19952;-66
2023/08/24 15:05:55;;;;;;;;;;;;;;;;;;5031920;28;20357;-66
2023/08/24 15:08:21;;;;;;;;;;;;;;;;;;5031105;28;20192;-67
2023/08/24 15:10:47;;;;;;;;;;;;;;;;;;5031682;28;19905;-67
2023/08/24 15:13:12;;;;;;;;;;;;;;;;;;5031291;28;19939;-68
2023/08/24 15:15:38;;;;;;;;;;;;;;;;;;5031734;28;19928;-67
2023/08/24 15:18:04;;;;;;;;;;;;;;;;;;5031166;28;19912;-66
2023/08/24 15:20:30;;;;;;;;;;;;;;;;;;5013787;28;19905;-66
2023/08/24 15:22:56;;;;;;;;;;;;;;;;;;5031797;28;20416;-66
2023/08/24 15:25:22;;;;;;;;;;;;;;;;;;5031432;28;19905;-67
2023/08/24 15:27:48;;;;;;;;;;;;;;;;;;5030618;28;19909;-67
2023/08/24 15:30:14;;;;;;;;;;;;;;;;;;5031288;28;19905;-67
2023/08/24 15:32:40;;;;;;;;;;;;;;;;;;5031130;28;19913;-67
2023/08/24 15:35:06;;;;;;;;;;;;;;;;;;5030979;28;19909;-66
2023/08/24 15:37:32;;;;;;;;;;;;;;;;;;5030411;28;19947;-66
2023/08/24 15:39:58;;;;;;;;;;;;;;;;;;5031018;28;19916;-66
2023/08/24 15:42:24;;;;;;;;;;;;;;;;;;5031182;28;19901;-66
2023/08/24 15:44:50;;;;;;;;;;;;;;;;;;5031154;28;20434;-67
2023/08/24 15:47:16;;;;;;;;;;;;;;;;;;5030506;28;19908;-67
2023/08/24 15:49:42;;;;;;;;;;;;;;;;;;5031052;28;20488;-67
2023/08/24 15:52:08;;;;;;;;;;;;;;;;;;5031153;28;20003;-67
2023/08/24 15:54:34;;;;;;;;;;;;;;;;;;5031246;28;19911;-67
2023/08/24 15:56:59;;;;;;;;;;;;;;;;;;5030923;28;19909;-67
2023/08/24 15:59:25;;;;;;;;;;;;;;;;;;5030288;28;19909;-67
2023/08/24 16:01:51;;;;;;;;;;;;;;;;;;5030838;28;20262;-66
2023/08/24 16:04:17;;;;;;;;;;;;;;;;;;5031430;28;19905;-66
2023/08/24 16:06:43;;;;;;;;;;;;;;;;;;5037676;28;19905;-67
2023/08/24 16:09:09;;;;;;;;;;;;;;;;;;5030115;28;19905;-66
2023/08/24 16:11:35;;;;;;;;;;;;;;;;;;5030766;28;20280;-67
2023/08/24 16:14:02;;;;;;;;;;;;;;;;;;5030614;28;19909;-67
2023/08/24 16:16:29;;;;;;;;;;;;;;;;;;5030224;28;19950;-65
2023/08/24 16:18:54;;;;;;;;;;;;;;;;;;5012284;28;19912;-68
2023/08/24 16:21:20;;;;;;;;;;;;;;;;;;5030164;28;19905;-67
2023/08/24 16:23:46;;;;;;;;;;;;;;;;;;5031499;28;19912;-67
2023/08/24 16:26:12;;;;;;;;;;;;;;;;;;5034777;28;19931;-67
2023/08/24 16:28:38;;;;;;;;;;;;;;;;;;5033825;28;19909;-66
2023/08/24 16:31:04;;;;;;;;;;;;;;;;;;5016564;28;20296;-67
2023/08/24 16:33:30;;;;;;;;;;;;;;;;;;5034320;28;20012;-67
2023/08/24 16:35:56;;;;;;;;;;;;;;;;;;5034658;28;19905;-67